createdAt,value
2022-10-31T00:00:20.934Z,78.10
2022-10-31T00:02:47.857Z,78.00
2022-10-31T00:05:14.938Z,78.10
2022-10-31T00:07:41.755Z,78.00
2022-10-31T00:10:09.409Z,78.10
2022-10-31T00:12:36.263Z,78.10
2022-10-31T00:15:03.093Z,78.10
2022-10-31T00:17:29.870Z,78.10
2022-10-31T00:19:57.753Z,78.20
2022-10-31T00:22:24.709Z,78.10
2022-10-31T00:24:51.509Z,78.80
2022-10-31T00:27:18.260Z,78.10
2022-10-31T00:29:44.975Z,78.10
2022-10-31T00:32:11.769Z,78.10
2022-10-31T00:34:38.635Z,78.10
2022-10-31T00:37:05.431Z,78.00
2022-10-31T00:39:32.212Z,77.90
2022-10-31T00:41:58.944Z,77.90
2022-10-31T00:44:25.800Z,77.80
2022-10-31T00:46:52.658Z,77.60
2022-10-31T00:49:19.392Z,77.70
2022-10-31T00:51:46.205Z,77.60
2022-10-31T00:54:13.083Z,77.50
2022-10-31T00:56:39.924Z,77.50
2022-10-31T00:59:06.663Z,77.50
2022-10-31T01:01:33.610Z,77.40
2022-10-31T01:04:00.447Z,77.40
2022-10-31T01:06:27.193Z,77.30
2022-10-31T01:08:53.967Z,77.10
2022-10-31T01:11:22.661Z,77.00
2022-10-31T01:13:52.907Z,76.80
2022-10-31T01:16:21.985Z,76.80
2022-10-31T01:18:49.045Z,76.80
2022-10-31T01:21:19.324Z,76.80
2022-10-31T01:23:46.659Z,76.80
2022-10-31T01:26:27.951Z,76.80
2022-10-31T01:29:01.987Z,76.80
2022-10-31T01:31:31.605Z,76.80
2022-10-31T01:33:58.877Z,76.80
2022-10-31T01:36:29.096Z,76.70
2022-10-31T01:38:59.217Z,76.90
2022-10-31T01:41:28.914Z,76.90
2022-10-31T01:44:01.441Z,76.90
2022-10-31T01:46:33.792Z,76.90
2022-10-31T01:49:03.829Z,76.80
2022-10-31T01:51:36.952Z,76.90
2022-10-31T01:54:09.192Z,76.90
2022-10-31T01:56:40.335Z,76.90
2022-10-31T01:59:11.064Z,77.00
2022-10-31T02:01:38.799Z,77.10
2022-10-31T02:04:07.384Z,77.00
2022-10-31T02:06:42.304Z,77.10
2022-10-31T02:09:09.211Z,77.00
2022-10-31T02:11:37.650Z,76.90
2022-10-31T02:14:04.710Z,77.00
2022-10-31T02:16:31.550Z,76.80
2022-10-31T02:18:58.609Z,76.80
2022-10-31T02:21:42.798Z,76.80
2022-10-31T02:24:21.658Z,76.80
2022-10-31T02:26:58.528Z,76.50
2022-10-31T02:29:41.186Z,76.60
2022-10-31T02:32:16.996Z,76.40
2022-10-31T02:35:08.540Z,76.40
2022-10-31T02:37:42.677Z,76.40
2022-10-31T02:40:46.074Z,76.30
2022-10-31T02:43:18.563Z,76.30
2022-10-31T02:45:48.454Z,76.30
2022-10-31T02:48:28.066Z,76.30
2022-10-31T02:51:01.332Z,76.30
2022-10-31T02:53:34.402Z,76.10
2022-10-31T02:56:15.399Z,76.00
2022-10-31T02:58:58.013Z,75.90
2022-10-31T03:01:34.166Z,75.90
2022-10-31T03:04:13.039Z,75.90
2022-10-31T03:06:50.392Z,76.10
2022-10-31T03:09:34.687Z,76.20
2022-10-31T03:12:25.211Z,76.20
2022-10-31T03:15:01.052Z,76.20
2022-10-31T03:17:37.573Z,76.10
2022-10-31T03:20:07.288Z,76.10
2022-10-31T03:22:35.166Z,76.10
2022-10-31T03:25:05.616Z,76.00
2022-10-31T03:27:34.869Z,76.20
2022-10-31T03:30:07.502Z,76.40
2022-10-31T03:32:52.750Z,76.60
2022-10-31T03:35:24.020Z,76.90
2022-10-31T03:37:54.421Z,76.90
2022-10-31T03:40:24.215Z,76.90
2022-10-31T03:43:06.168Z,76.90
2022-10-31T03:45:36.929Z,77.00
2022-10-31T03:48:04.210Z,76.90
2022-10-31T03:50:45.371Z,76.90
2022-10-31T03:53:21.915Z,77.00
2022-10-31T03:55:53.763Z,77.60
2022-10-31T03:58:27.064Z,76.70
2022-10-31T04:00:56.489Z,76.70
2022-10-31T04:03:29.646Z,76.70
2022-10-31T04:06:00.545Z,76.70
2022-10-31T04:08:31.677Z,76.70
2022-10-31T04:11:00.999Z,76.70
2022-10-31T04:13:32.546Z,76.60
2022-10-31T04:16:00.097Z,76.60
2022-10-31T04:18:27.493Z,76.50
2022-10-31T04:21:06.102Z,76.50
2022-10-31T04:23:34.321Z,76.30
2022-10-31T04:26:01.196Z,76.30
2022-10-31T04:28:28.389Z,76.30
2022-10-31T04:30:55.326Z,76.30
2022-10-31T04:33:22.163Z,76.20
2022-10-31T04:35:49.145Z,76.00
2022-10-31T04:38:16.068Z,76.00
2022-10-31T04:40:42.948Z,75.90
2022-10-31T04:43:09.991Z,75.90
2022-10-31T04:45:36.768Z,76.70
2022-10-31T04:48:03.948Z,76.00
2022-10-31T04:50:30.940Z,76.00
2022-10-31T04:52:57.820Z,76.10
2022-10-31T04:55:24.673Z,76.10
2022-10-31T04:57:51.907Z,76.20
2022-10-31T05:00:21.168Z,76.40
2022-10-31T05:02:49.428Z,76.40
2022-10-31T05:05:17.762Z,76.40
2022-10-31T05:07:45.961Z,76.50
2022-10-31T05:10:15.155Z,76.50
2022-10-31T05:13:02.352Z,76.50
2022-10-31T05:15:29.980Z,76.50
2022-10-31T05:17:57.044Z,76.50
2022-10-31T05:20:27.126Z,76.40
2022-10-31T05:22:55.743Z,76.60
2022-10-31T05:25:27.184Z,76.60
2022-10-31T05:27:55.474Z,76.60
2022-10-31T05:30:31.150Z,76.70
2022-10-31T05:32:58.184Z,76.60
2022-10-31T05:35:30.946Z,76.70
2022-10-31T05:38:01.037Z,76.70
2022-10-31T05:40:28.909Z,76.70
2022-10-31T05:42:57.887Z,76.80
2022-10-31T05:45:25.656Z,76.80
2022-10-31T05:48:00.606Z,76.80
2022-10-31T05:50:29.761Z,76.90
2022-10-31T05:53:06.686Z,76.90
2022-10-31T05:55:34.009Z,77.00
2022-10-31T05:58:01.682Z,77.10
2022-10-31T06:00:29.582Z,77.10
2022-10-31T06:03:00.917Z,77.10
2022-10-31T06:05:28.307Z,77.10
2022-10-31T06:07:55.191Z,77.10
2022-10-31T06:10:22.048Z,77.20
2022-10-31T06:12:49.391Z,77.10
2022-10-31T06:15:23.302Z,77.10
2022-10-31T06:18:00.009Z,77.20
2022-10-31T06:20:27.012Z,77.30
2022-10-31T06:22:53.756Z,77.20
2022-10-31T06:25:20.567Z,77.20
2022-10-31T06:27:47.420Z,77.30
2022-10-31T06:30:14.539Z,77.50
2022-10-31T06:32:41.599Z,77.40
2022-10-31T06:35:08.468Z,77.60
2022-10-31T06:37:35.190Z,77.60
2022-10-31T06:40:01.979Z,77.60
2022-10-31T06:42:28.786Z,77.70
2022-10-31T06:44:55.565Z,77.70
2022-10-31T06:47:22.304Z,77.60
2022-10-31T06:49:49.131Z,77.50
2022-10-31T06:52:16.147Z,77.50
2022-10-31T06:54:42.906Z,77.50
2022-10-31T06:57:09.771Z,77.50
2022-10-31T06:59:36.601Z,77.50
2022-10-31T07:02:03.660Z,77.50
2022-10-31T07:04:30.654Z,77.50
2022-10-31T07:06:57.434Z,77.60
2022-10-31T07:09:24.263Z,77.60
2022-10-31T07:11:53.553Z,77.60
2022-10-31T07:14:20.703Z,77.60
2022-10-31T07:16:51.800Z,77.70
2022-10-31T07:19:19.094Z,77.70
2022-10-31T07:21:45.954Z,77.70
2022-10-31T07:24:12.700Z,77.80
2022-10-31T07:26:39.455Z,77.90
2022-10-31T07:29:06.259Z,78.00
2022-10-31T07:31:33.055Z,78.00
2022-10-31T07:33:59.904Z,78.10
2022-10-31T07:36:26.636Z,78.20
2022-10-31T07:38:53.419Z,78.20
2022-10-31T07:41:20.172Z,78.30
2022-10-31T07:43:47.090Z,78.40
2022-10-31T07:46:13.939Z,78.40
2022-10-31T07:48:40.794Z,78.50
2022-10-31T07:51:07.998Z,78.50
2022-10-31T07:53:34.815Z,78.60
2022-10-31T07:56:01.707Z,78.70
2022-10-31T07:58:28.469Z,78.70
2022-10-31T08:00:55.345Z,78.70
2022-10-31T08:03:22.300Z,78.90
2022-10-31T08:05:49.162Z,78.90
2022-10-31T08:08:16.549Z,79.00
2022-10-31T08:10:43.593Z,79.00
2022-10-31T08:13:12.761Z,79.30
2022-10-31T08:15:42.456Z,79.40
2022-10-31T08:18:17.185Z,79.30
2022-10-31T08:20:44.637Z,79.40
2022-10-31T08:23:13.179Z,79.40
2022-10-31T08:25:40.071Z,79.50
2022-10-31T08:28:09.255Z,79.60
2022-10-31T08:30:37.990Z,79.80
2022-10-31T08:33:06.896Z,79.80
2022-10-31T08:35:34.641Z,79.80
2022-10-31T08:38:02.583Z,79.80
2022-10-31T08:40:31.321Z,79.90
2022-10-31T08:43:03.566Z,79.90
2022-10-31T08:45:32.043Z,79.90
2022-10-31T08:48:04.841Z,79.90
2022-10-31T08:50:34.263Z,79.90
2022-10-31T08:53:20.219Z,80.10
2022-10-31T08:55:56.490Z,80.20
2022-10-31T08:58:24.452Z,80.10
2022-10-31T09:00:53.657Z,80.00
2022-10-31T09:03:25.656Z,80.10
2022-10-31T09:05:57.279Z,80.30
2022-10-31T09:08:24.332Z,80.20
2022-10-31T09:10:52.446Z,80.20
2022-10-31T09:13:21.677Z,80.30
2022-10-31T09:15:49.954Z,80.30
2022-10-31T09:18:19.279Z,80.40
2022-10-31T09:20:47.963Z,80.50
2022-10-31T09:23:23.181Z,80.60
2022-10-31T09:25:51.817Z,80.50
2022-10-31T09:28:24.493Z,80.50
2022-10-31T09:30:53.828Z,80.50
2022-10-31T09:33:21.504Z,80.50
2022-10-31T09:35:48.376Z,80.50
2022-10-31T09:38:20.622Z,80.60
2022-10-31T09:41:09.119Z,80.60
2022-10-31T09:44:11.608Z,80.60
2022-10-31T09:47:22.428Z,80.70
2022-10-31T09:50:19.496Z,80.80
2022-10-31T09:53:01.878Z,80.80
2022-10-31T09:55:48.856Z,81.00
2022-10-31T09:58:24.139Z,81.00
2022-10-31T10:00:51.138Z,81.10
2022-10-31T10:03:32.857Z,81.10
2022-10-31T10:06:14.834Z,81.40
2022-10-31T10:08:41.982Z,81.50
2022-10-31T10:11:33.984Z,81.50
2022-10-31T10:14:22.428Z,81.80
2022-10-31T10:17:15.397Z,81.70
2022-10-31T10:20:00.671Z,81.90
2022-10-31T10:22:45.593Z,82.00
2022-10-31T10:25:12.729Z,82.10
2022-10-31T10:28:06.776Z,82.10
2022-10-31T10:30:56.180Z,82.30
2022-10-31T10:33:41.253Z,82.30
2022-10-31T10:36:15.662Z,82.30
2022-10-31T10:39:09.321Z,82.30
2022-10-31T10:41:36.810Z,82.30
2022-10-31T10:44:09.526Z,82.20
2022-10-31T10:47:00.797Z,82.10
2022-10-31T10:49:51.969Z,82.10
2022-10-31T10:52:40.434Z,81.90
2022-10-31T10:55:07.677Z,81.90
2022-10-31T10:57:58.390Z,82.00
2022-10-31T11:00:41.368Z,82.10
2022-10-31T11:03:10.697Z,82.00
2022-10-31T11:05:43.205Z,82.00
2022-10-31T11:08:10.343Z,81.90
2022-10-31T11:10:37.212Z,81.80
2022-10-31T11:13:24.726Z,81.70
2022-10-31T11:16:10.838Z,81.60
2022-10-31T11:18:44.163Z,81.50
2022-10-31T11:21:26.573Z,81.50
2022-10-31T11:24:11.709Z,81.50
2022-10-31T11:26:40.388Z,81.40
2022-10-31T11:29:16.617Z,81.40
2022-10-31T11:31:45.770Z,81.40
2022-10-31T11:34:37.541Z,81.50
2022-10-31T11:37:16.090Z,81.70
2022-10-31T11:39:46.019Z,81.70
2022-10-31T11:42:13.085Z,81.70
2022-10-31T11:44:44.347Z,81.50
2022-10-31T11:47:16.058Z,81.70
2022-10-31T11:49:45.343Z,81.70
2022-10-31T11:52:17.661Z,81.50
2022-10-31T11:55:16.717Z,81.40
2022-10-31T11:57:49.443Z,81.30
2022-10-31T12:03:22.841Z,81.10
2022-10-31T12:05:57.877Z,81.00
2022-10-31T12:08:30.739Z,80.90
2022-10-31T12:11:21.800Z,80.90
2022-10-31T12:14:03.479Z,80.80
2022-10-31T12:17:02.091Z,80.80
2022-10-31T12:19:28.835Z,80.60
2022-10-31T12:22:37.327Z,80.50
2022-10-31T12:25:33.376Z,80.40
2022-10-31T12:28:00.152Z,80.40
2022-10-31T12:30:50.137Z,80.30
2022-10-31T12:33:56.589Z,80.30
2022-10-31T12:36:42.062Z,80.10
2022-10-31T12:39:42.569Z,80.10
2022-10-31T12:42:25.158Z,80.10
2022-10-31T12:45:10.516Z,80.10
2022-10-31T12:47:58.990Z,80.10
2022-10-31T12:50:51.156Z,80.20
2022-10-31T12:53:27.910Z,80.20
2022-10-31T12:55:58.806Z,80.20
2022-10-31T12:58:28.181Z,80.20
2022-10-31T13:01:08.596Z,80.10
2022-10-31T13:03:45.445Z,80.00
2022-10-31T13:06:19.894Z,79.90
2022-10-31T13:08:54.623Z,79.80
2022-10-31T13:11:27.284Z,79.70
2022-10-31T13:14:12.546Z,79.70
2022-10-31T13:16:44.664Z,79.60
2022-10-31T13:19:19.660Z,79.60
2022-10-31T13:21:55.616Z,79.60
2022-10-31T13:24:34.820Z,79.50
2022-10-31T13:27:10.570Z,80.00
2022-10-31T13:29:43.650Z,79.20
2022-10-31T13:32:11.695Z,78.90
2022-10-31T13:34:47.022Z,78.70
2022-10-31T13:37:28.599Z,78.50
2022-10-31T13:40:37.789Z,78.10
2022-10-31T13:43:32.489Z,77.60
2022-10-31T13:45:59.625Z,77.60
2022-10-31T13:48:26.447Z,77.60
2022-10-31T13:51:03.221Z,77.50
2022-10-31T13:53:46.721Z,77.60
2022-10-31T13:56:25.544Z,77.30
2022-10-31T13:59:10.504Z,77.40
2022-10-31T14:01:46.379Z,77.40
2022-10-31T14:04:24.907Z,77.30
2022-10-31T14:07:08.441Z,77.40
2022-10-31T14:09:41.653Z,77.40
2022-10-31T14:12:22.261Z,77.50
2022-10-31T14:14:57.774Z,77.60
2022-10-31T14:17:34.249Z,77.60
2022-10-31T14:20:25.590Z,77.70
2022-10-31T14:22:52.607Z,77.60
2022-10-31T14:25:34.003Z,77.60
2022-10-31T14:28:04.563Z,77.60
2022-10-31T14:30:31.865Z,77.60
2022-10-31T14:33:02.113Z,77.60
2022-10-31T14:35:59.703Z,77.60
2022-10-31T14:38:26.655Z,77.80
2022-10-31T14:41:18.006Z,77.70
2022-10-31T14:44:33.163Z,77.70
2022-10-31T14:47:15.907Z,77.80
2022-10-31T14:50:22.616Z,77.60
2022-10-31T14:52:53.299Z,77.80
2022-10-31T14:55:21.773Z,77.90
2022-10-31T14:58:04.869Z,77.80
2022-10-31T15:00:33.868Z,77.90
2022-10-31T15:03:26.519Z,77.90
2022-10-31T15:05:57.047Z,77.90
2022-10-31T15:08:35.223Z,77.90
2022-10-31T15:11:16.234Z,78.00
2022-10-31T15:13:52.003Z,77.90
2022-10-31T15:16:29.574Z,78.00
2022-10-31T15:19:00.562Z,78.00
2022-10-31T15:21:29.339Z,78.00
2022-10-31T15:24:01.271Z,78.00
2022-10-31T15:26:36.082Z,78.10
2022-10-31T15:29:15.092Z,78.00
2022-10-31T15:31:56.786Z,78.10
2022-10-31T15:34:39.005Z,78.20
2022-10-31T15:37:11.530Z,78.30
2022-10-31T15:39:38.474Z,78.40
2022-10-31T15:42:05.494Z,78.40
2022-10-31T15:44:36.994Z,78.50
2022-10-31T15:47:18.129Z,78.70
2022-10-31T15:49:55.886Z,78.70
2022-10-31T15:52:48.139Z,78.70
2022-10-31T15:55:16.805Z,78.70
2022-10-31T15:57:49.683Z,78.70
2022-10-31T16:00:26.721Z,78.90
2022-10-31T16:03:07.531Z,78.80
2022-10-31T16:05:44.660Z,78.80
2022-10-31T16:08:29.403Z,78.80
2022-10-31T16:11:13.580Z,78.80
2022-10-31T16:13:58.032Z,78.80
2022-10-31T16:16:40.975Z,78.80
2022-10-31T16:19:21.919Z,78.90
2022-10-31T16:21:53.434Z,78.90
2022-10-31T16:24:28.720Z,79.00
2022-10-31T16:27:07.358Z,78.90
2022-10-31T16:29:45.807Z,79.00
2022-10-31T16:32:36.438Z,79.00
2022-10-31T16:35:09.432Z,78.90
2022-10-31T16:37:42.439Z,78.80
2022-10-31T16:40:14.395Z,78.90
2022-10-31T16:42:42.469Z,78.80
2022-10-31T16:45:19.424Z,78.90
2022-10-31T16:47:46.355Z,78.90
2022-10-31T16:50:31.770Z,78.80
2022-10-31T16:53:14.693Z,78.80
2022-10-31T16:55:57.661Z,78.70
2022-10-31T16:58:30.673Z,78.60
2022-10-31T17:00:58.147Z,78.60
2022-10-31T17:03:24.995Z,78.60
2022-10-31T17:05:51.863Z,78.50
2022-10-31T17:08:18.830Z,78.40
2022-10-31T17:10:48.010Z,78.20
2022-10-31T17:13:23.098Z,78.10
2022-10-31T17:15:58.269Z,77.90
2022-10-31T17:18:27.670Z,78.00
2022-10-31T17:21:00.294Z,77.80
2022-10-31T17:23:28.221Z,77.70
2022-10-31T17:25:55.883Z,77.60
2022-10-31T17:28:22.729Z,77.60
2022-10-31T17:30:49.648Z,77.50
2022-10-31T17:33:17.269Z,77.50
2022-10-31T17:35:50.175Z,77.40
2022-10-31T17:38:17.011Z,77.40
2022-10-31T17:40:44.176Z,77.30
2022-10-31T17:43:12.108Z,77.20
2022-10-31T17:45:40.742Z,77.20
2022-10-31T17:48:10.139Z,77.10
2022-10-31T17:50:36.984Z,76.80
2022-10-31T17:53:04.201Z,76.70
2022-10-31T17:55:36.045Z,76.60
2022-10-31T17:58:05.124Z,76.40
2022-10-31T18:00:34.176Z,76.50
2022-10-31T18:03:03.758Z,76.40
2022-10-31T18:05:31.301Z,76.30
2022-10-31T18:08:04.117Z,76.20
2022-10-31T18:10:31.442Z,76.30
2022-10-31T18:12:58.448Z,76.20
2022-10-31T18:15:25.460Z,76.20
2022-10-31T18:17:52.538Z,76.20
2022-10-31T18:20:19.312Z,76.20
2022-10-31T18:22:46.321Z,76.10
2022-10-31T18:25:13.252Z,76.10
2022-10-31T18:27:40.020Z,76.10
2022-10-31T18:30:07.663Z,76.10
2022-10-31T18:32:36.338Z,75.90
2022-10-31T18:35:03.450Z,76.00
2022-10-31T18:37:30.314Z,75.90
2022-10-31T18:39:57.231Z,75.90
2022-10-31T18:42:24.047Z,75.90
2022-10-31T18:44:50.890Z,75.90
2022-10-31T18:47:19.195Z,75.90
2022-10-31T18:49:46.002Z,75.90
2022-10-31T18:52:12.774Z,75.90
2022-10-31T18:54:39.601Z,76.00
2022-10-31T18:57:06.451Z,76.00
2022-10-31T18:59:33.314Z,76.20
2022-10-31T19:02:00.155Z,76.10
2022-10-31T19:04:27.317Z,76.00
2022-10-31T19:06:55.530Z,76.00
2022-10-31T19:09:24.205Z,76.10
2022-10-31T19:11:51.128Z,76.30
2022-10-31T19:14:18.139Z,76.20
2022-10-31T19:16:44.950Z,76.30
2022-10-31T19:19:11.764Z,76.30
2022-10-31T19:21:38.696Z,76.30
2022-10-31T19:24:05.674Z,76.30
2022-10-31T19:26:34.024Z,76.20
2022-10-31T19:29:00.972Z,76.20
2022-10-31T19:31:27.763Z,76.00
2022-10-31T19:33:54.578Z,76.00
2022-10-31T19:36:22.094Z,76.00
2022-10-31T19:38:50.974Z,76.00
2022-10-31T19:41:21.113Z,76.20
2022-10-31T19:43:48.678Z,76.30
2022-10-31T19:46:22.853Z,76.20
2022-10-31T19:49:01.198Z,76.30
2022-10-31T19:51:28.053Z,76.40
2022-10-31T19:53:55.055Z,76.40
2022-10-31T19:56:23.832Z,76.50
2022-10-31T19:58:50.678Z,76.50
2022-10-31T20:01:23.376Z,76.50
2022-10-31T20:03:50.810Z,76.60
2022-10-31T20:06:31.194Z,76.50
2022-10-31T20:08:58.511Z,76.50
2022-10-31T20:11:27.104Z,76.40
2022-10-31T20:13:58.119Z,76.40
2022-10-31T20:16:25.839Z,76.50
2022-10-31T20:18:52.924Z,76.40
2022-10-31T20:21:22.891Z,76.40
2022-10-31T20:23:49.966Z,76.50
2022-10-31T20:26:19.417Z,76.40
2022-10-31T20:28:46.797Z,76.40
2022-10-31T20:31:20.198Z,76.40
2022-10-31T20:33:48.161Z,76.50
2022-10-31T20:36:15.683Z,76.50
2022-10-31T20:38:42.733Z,76.40
2022-10-31T20:41:11.375Z,77.00
2022-10-31T20:43:38.758Z,76.50
2022-10-31T20:46:20.151Z,76.60
2022-10-31T20:48:47.451Z,76.70
2022-10-31T20:51:21.409Z,76.80
2022-10-31T20:53:49.456Z,76.90
2022-10-31T20:56:19.420Z,77.00
2022-10-31T20:58:46.691Z,77.10
2022-10-31T21:01:15.129Z,77.10
2022-10-31T21:03:42.318Z,77.10
2022-10-31T21:06:09.795Z,77.10
2022-10-31T21:08:37.625Z,77.10
2022-10-31T21:11:11.220Z,77.20
2022-10-31T21:13:42.329Z,77.10
2022-10-31T21:16:21.059Z,77.00
2022-10-31T21:18:49.632Z,76.90
2022-10-31T21:21:29.015Z,77.00
2022-10-31T21:24:02.556Z,76.90
2022-10-31T21:26:34.060Z,76.90
2022-10-31T21:29:02.616Z,76.80
2022-10-31T21:31:29.603Z,76.80
2022-10-31T21:33:56.610Z,76.70
2022-10-31T21:36:23.860Z,76.70
2022-10-31T21:38:51.395Z,76.60
2022-10-31T21:41:19.303Z,76.60
2022-10-31T21:43:48.121Z,76.50
2022-10-31T21:46:18.372Z,76.70
2022-10-31T21:48:46.264Z,76.60
2022-10-31T21:51:30.396Z,76.60
2022-10-31T21:54:16.006Z,76.70
2022-10-31T21:56:43.392Z,76.70
2022-10-31T21:59:10.708Z,76.70
2022-10-31T22:01:38.204Z,76.80
2022-10-31T22:04:06.240Z,76.80
2022-10-31T22:06:33.265Z,76.90
2022-10-31T22:09:02.043Z,76.80
2022-10-31T22:11:29.605Z,77.00
2022-10-31T22:13:58.837Z,77.10
2022-10-31T22:16:26.920Z,77.20
2022-10-31T22:18:55.862Z,77.20
2022-10-31T22:21:24.808Z,77.30
2022-10-31T22:23:57.947Z,77.30
2022-10-31T22:26:27.621Z,77.50
2022-10-31T22:28:59.497Z,77.60
2022-10-31T22:31:27.641Z,77.70
2022-10-31T22:33:55.507Z,77.80
2022-10-31T22:36:24.886Z,78.00
2022-10-31T22:38:52.342Z,78.20
2022-10-31T22:41:21.271Z,78.20
2022-10-31T22:43:49.545Z,78.40
2022-10-31T22:46:18.792Z,78.50
2022-10-31T22:48:49.897Z,78.70
2022-10-31T22:51:16.879Z,78.80
2022-10-31T22:53:44.498Z,78.80
2022-10-31T22:56:14.312Z,79.00
2022-10-31T22:58:41.526Z,79.10
2022-10-31T23:01:11.739Z,79.20
2022-10-31T23:03:38.889Z,79.30
2022-10-31T23:06:07.284Z,79.30
2022-10-31T23:08:35.779Z,79.40
2022-10-31T23:11:04.337Z,79.40
2022-10-31T23:13:49.451Z,79.50
2022-10-31T23:16:16.370Z,79.50
2022-10-31T23:18:50.742Z,79.50
2022-10-31T23:21:44.148Z,79.60
2022-10-31T23:24:12.034Z,79.60
2022-10-31T23:26:58.316Z,79.90
2022-10-31T23:29:25.109Z,79.90
2022-10-31T23:31:54.495Z,79.80
2022-10-31T23:34:24.115Z,79.80
2022-10-31T23:36:51.149Z,79.90
2022-10-31T23:39:21.248Z,79.90
2022-10-31T23:41:51.218Z,79.90
2022-10-31T23:44:18.157Z,79.90
2022-10-31T23:46:44.915Z,80.00
2022-10-31T23:49:11.733Z,80.10
2022-10-31T23:51:39.204Z,80.00
2022-10-31T23:54:06.072Z,80.20
2022-10-31T23:56:32.885Z,80.10
2022-10-31T23:58:59.659Z,80.00
